sensor_id;sensor_type;location;lat;lon;timestamp;P1;durP1;ratioP1;P2;durP2;ratioP2
62808;SDS011;48848;39.002;-94.584;2022-11-20T00:01:14;4.13;;;1.60;;
62808;SDS011;48848;39.002;-94.584;2022-11-20T00:03:44;3.40;;;1.65;;
62808;SDS011;48848;39.002;-94.584;2022-11-20T00:06:12;4.55;;;1.40;;
62808;SDS011;48848;39.002;-94.584;2022-11-20T00:08:43;3.90;;;1.50;;
62808;SDS011;48848;39.002;-94.584;2022-11-20T00:11:19;2.33;;;1.20;;
62808;SDS011;48848;39.002;-94.584;2022-11-20T00:13:47;4.80;;;1.20;;
62808;SDS011;48848;39.002;-94.584;2022-11-20T00:16:17;4.75;;;1.38;;
62808;SDS011;48848;39.002;-94.584;2022-11-20T00:18:45;3.55;;;0.90;;
62808;SDS011;48848;39.002;-94.584;2022-11-20T00:21:15;9.68;;;1.60;;
62808;SDS011;48848;39.002;-94.584;2022-11-20T00:23:41;3.33;;;1.23;;
62808;SDS011;48848;39.002;-94.584;2022-11-20T00:26:10;6.07;;;1.65;;
62808;SDS011;48848;39.002;-94.584;2022-11-20T00:28:38;2.90;;;1.25;;
62808;SDS011;48848;39.002;-94.584;2022-11-20T00:31:14;4.57;;;1.40;;
62808;SDS011;48848;39.002;-94.584;2022-11-20T00:33:41;5.03;;;1.23;;
62808;SDS011;48848;39.002;-94.584;2022-11-20T00:36:12;2.30;;;1.15;;
62808;SDS011;48848;39.002;-94.584;2022-11-20T00:38:43;3.10;;;1.27;;
62808;SDS011;48848;39.002;-94.584;2022-11-20T00:41:10;1.83;;;1.13;;
62808;SDS011;48848;39.002;-94.584;2022-11-20T00:43:38;2.58;;;1.13;;
62808;SDS011;48848;39.002;-94.584;2022-11-20T00:46:06;1.92;;;1.08;;
62808;SDS011;48848;39.002;-94.584;2022-11-20T01:12:59;3.28;;;1.40;;
62808;SDS011;48848;39.002;-94.584;2022-11-20T01:15:44;2.67;;;1.30;;
62808;SDS011;48848;39.002;-94.584;2022-11-20T01:18:10;3.75;;;1.35;;
62808;SDS011;48848;39.002;-94.584;2022-11-20T01:20:36;4.55;;;2.08;;
62808;SDS011;48848;39.002;-94.584;2022-11-20T01:23:03;2.83;;;1.40;;
62808;SDS011;48848;39.002;-94.584;2022-11-20T01:25:29;3.72;;;1.42;;
62808;SDS011;48848;39.002;-94.584;2022-11-20T01:27:56;6.53;;;1.40;;
62808;SDS011;48848;39.002;-94.584;2022-11-20T01:30:22;6.60;;;1.33;;
62808;SDS011;48848;39.002;-94.584;2022-11-20T01:32:48;3.50;;;1.40;;
62808;SDS011;48848;39.002;-94.584;2022-11-20T01:35:14;3.33;;;1.50;;
62808;SDS011;48848;39.002;-94.584;2022-11-20T01:37:40;5.15;;;1.50;;
62808;SDS011;48848;39.002;-94.584;2022-11-20T01:40:07;3.95;;;1.85;;
62808;SDS011;48848;39.002;-94.584;2022-11-20T01:42:33;3.83;;;1.50;;
62808;SDS011;48848;39.002;-94.584;2022-11-20T01:48:21;2.38;;;1.30;;
62808;SDS011;48848;39.002;-94.584;2022-11-20T01:50:51;3.92;;;1.67;;
62808;SDS011;48848;39.002;-94.584;2022-11-20T01:53:19;6.63;;;1.60;;
62808;SDS011;48848;39.002;-94.584;2022-11-20T01:55:51;3.53;;;1.50;;
62808;SDS011;48848;39.002;-94.584;2022-11-20T01:58:21;3.67;;;1.70;;
62808;SDS011;48848;39.002;-94.584;2022-11-20T02:00:52;4.13;;;1.80;;
62808;SDS011;48848;39.002;-94.584;2022-11-20T02:03:19;3.35;;;1.90;;
62808;SDS011;48848;39.002;-94.584;2022-11-20T02:08:35;4.50;;;2.33;;
62808;SDS011;48848;39.002;-94.584;2022-11-20T02:11:03;4.43;;;2.28;;
62808;SDS011;48848;39.002;-94.584;2022-11-20T02:13:29;4.78;;;1.90;;
62808;SDS011;48848;39.002;-94.584;2022-11-20T02:16:21;4.68;;;2.33;;
62808;SDS011;48848;39.002;-94.584;2022-11-20T02:18:54;4.80;;;2.45;;
62808;SDS011;48848;39.002;-94.584;2022-11-20T02:21:37;5.40;;;2.10;;
62808;SDS011;48848;39.002;-94.584;2022-11-20T02:24:21;4.95;;;2.13;;
62808;SDS011;48848;39.002;-94.584;2022-11-20T02:29:44;4.95;;;2.00;;
62808;SDS011;48848;39.002;-94.584;2022-11-20T02:32:26;4.00;;;2.00;;
62808;SDS011;48848;39.002;-94.584;2022-11-20T02:34:57;4.93;;;2.10;;
62808;SDS011;48848;39.002;-94.584;2022-11-20T02:37:23;4.95;;;1.80;;
62808;SDS011;48848;39.002;-94.584;2022-11-20T02:39:55;3.67;;;2.00;;
62808;SDS011;48848;39.002;-94.584;2022-11-20T02:42:22;4.30;;;1.85;;
62808;SDS011;48848;39.002;-94.584;2022-11-20T02:44:48;3.75;;;1.80;;
62808;SDS011;48848;39.002;-94.584;2022-11-20T02:47:14;4.13;;;2.00;;
62808;SDS011;48848;39.002;-94.584;2022-11-20T02:49:40;4.03;;;1.92;;
62808;SDS011;48848;39.002;-94.584;2022-11-20T02:52:06;5.00;;;1.90;;
62808;SDS011;48848;39.002;-94.584;2022-11-20T02:54:33;7.03;;;1.88;;
62808;SDS011;48848;39.002;-94.584;2022-11-20T02:56:59;3.65;;;1.80;;
62808;SDS011;48848;39.002;-94.584;2022-11-20T02:59:25;4.75;;;1.85;;
62808;SDS011;48848;39.002;-94.584;2022-11-20T03:01:51;4.10;;;1.98;;
62808;SDS011;48848;39.002;-94.584;2022-11-20T03:04:20;5.90;;;2.20;;
62808;SDS011;48848;39.002;-94.584;2022-11-20T03:06:46;4.18;;;1.95;;
62808;SDS011;48848;39.002;-94.584;2022-11-20T03:09:13;3.63;;;1.83;;
62808;SDS011;48848;39.002;-94.584;2022-11-20T03:11:39;4.47;;;1.83;;
62808;SDS011;48848;39.002;-94.584;2022-11-20T03:14:05;3.70;;;2.00;;
62808;SDS011;48848;39.002;-94.584;2022-11-20T03:16:31;3.65;;;1.90;;
62808;SDS011;48848;39.002;-94.584;2022-11-20T03:18:58;3.88;;;1.98;;
62808;SDS011;48848;39.002;-94.584;2022-11-20T03:21:24;3.65;;;1.90;;
62808;SDS011;48848;39.002;-94.584;2022-11-20T03:23:50;4.25;;;2.00;;
62808;SDS011;48848;39.002;-94.584;2022-11-20T03:26:19;4.05;;;1.90;;
62808;SDS011;48848;39.002;-94.584;2022-11-20T03:28:51;4.68;;;2.00;;
62808;SDS011;48848;39.002;-94.584;2022-11-20T03:31:20;5.72;;;2.15;;
62808;SDS011;48848;39.002;-94.584;2022-11-20T03:33:48;4.95;;;2.33;;
62808;SDS011;48848;39.002;-94.584;2022-11-20T03:36:15;4.60;;;2.35;;
62808;SDS011;48848;39.002;-94.584;2022-11-20T03:38:42;6.18;;;2.08;;
62808;SDS011;48848;39.002;-94.584;2022-11-20T03:41:10;4.47;;;2.03;;
62808;SDS011;48848;39.002;-94.584;2022-11-20T03:43:38;4.68;;;2.15;;
62808;SDS011;48848;39.002;-94.584;2022-11-20T03:46:05;4.40;;;2.20;;
62808;SDS011;48848;39.002;-94.584;2022-11-20T03:48:32;4.63;;;2.28;;
62808;SDS011;48848;39.002;-94.584;2022-11-20T03:51:33;5.05;;;2.40;;
62808;SDS011;48848;39.002;-94.584;2022-11-20T03:53:55;4.07;;;2.30;;
62808;SDS011;48848;39.002;-94.584;2022-11-20T03:56:24;8.02;;;2.78;;
62808;SDS011;48848;39.002;-94.584;2022-11-20T03:58:54;5.28;;;2.60;;
62808;SDS011;48848;39.002;-94.584;2022-11-20T04:01:21;4.15;;;2.25;;
62808;SDS011;48848;39.002;-94.584;2022-11-20T04:03:49;5.30;;;2.30;;
62808;SDS011;48848;39.002;-94.584;2022-11-20T04:06:18;5.68;;;2.38;;
62808;SDS011;48848;39.002;-94.584;2022-11-20T04:08:46;5.78;;;2.40;;
62808;SDS011;48848;39.002;-94.584;2022-11-20T04:11:16;3.72;;;1.90;;
62808;SDS011;48848;39.002;-94.584;2022-11-20T04:16:23;4.80;;;2.25;;
62808;SDS011;48848;39.002;-94.584;2022-11-20T04:18:54;5.38;;;2.47;;
62808;SDS011;48848;39.002;-94.584;2022-11-20T04:21:22;4.65;;;2.40;;
62808;SDS011;48848;39.002;-94.584;2022-11-20T04:23:50;6.40;;;2.63;;
62808;SDS011;48848;39.002;-94.584;2022-11-20T04:26:18;6.40;;;2.75;;
62808;SDS011;48848;39.002;-94.584;2022-11-20T04:28:45;4.70;;;2.35;;
62808;SDS011;48848;39.002;-94.584;2022-11-20T04:31:12;3.90;;;2.30;;
62808;SDS011;48848;39.002;-94.584;2022-11-20T04:33:40;5.20;;;2.40;;
62808;SDS011;48848;39.002;-94.584;2022-11-20T04:36:07;4.75;;;2.35;;
62808;SDS011;48848;39.002;-94.584;2022-11-20T04:38:37;6.28;;;2.90;;
62808;SDS011;48848;39.002;-94.584;2022-11-20T04:41:05;5.50;;;2.60;;
62808;SDS011;48848;39.002;-94.584;2022-11-20T04:43:33;5.72;;;2.53;;
62808;SDS011;48848;39.002;-94.584;2022-11-20T04:45:59;4.95;;;2.42;;
62808;SDS011;48848;39.002;-94.584;2022-11-20T04:48:27;4.88;;;2.45;;
62808;SDS011;48848;39.002;-94.584;2022-11-20T04:50:54;5.32;;;2.70;;
62808;SDS011;48848;39.002;-94.584;2022-11-20T04:53:20;7.55;;;2.85;;
62808;SDS011;48848;39.002;-94.584;2022-11-20T04:55:47;4.43;;;2.50;;
62808;SDS011;48848;39.002;-94.584;2022-11-20T04:58:14;6.90;;;2.78;;
62808;SDS011;48848;39.002;-94.584;2022-11-20T05:00:40;5.63;;;2.70;;
62808;SDS011;48848;39.002;-94.584;2022-11-20T05:03:07;5.15;;;2.55;;
62808;SDS011;48848;39.002;-94.584;2022-11-20T05:05:33;6.95;;;3.17;;
62808;SDS011;48848;39.002;-94.584;2022-11-20T05:08:00;5.25;;;2.80;;
62808;SDS011;48848;39.002;-94.584;2022-11-20T05:10:26;8.50;;;3.00;;
62808;SDS011;48848;39.002;-94.584;2022-11-20T05:12:53;5.45;;;2.90;;
62808;SDS011;48848;39.002;-94.584;2022-11-20T05:15:19;5.20;;;3.08;;
62808;SDS011;48848;39.002;-94.584;2022-11-20T05:17:49;5.63;;;2.78;;
62808;SDS011;48848;39.002;-94.584;2022-11-20T05:20:16;5.75;;;2.60;;
62808;SDS011;48848;39.002;-94.584;2022-11-20T05:22:43;5.60;;;2.70;;
62808;SDS011;48848;39.002;-94.584;2022-11-20T05:25:10;6.78;;;2.97;;
62808;SDS011;48848;39.002;-94.584;2022-11-20T05:27:37;5.57;;;2.70;;
62808;SDS011;48848;39.002;-94.584;2022-11-20T05:30:03;6.78;;;3.03;;
62808;SDS011;48848;39.002;-94.584;2022-11-20T05:32:30;5.20;;;2.60;;
62808;SDS011;48848;39.002;-94.584;2022-11-20T05:34:56;5.10;;;2.70;;
62808;SDS011;48848;39.002;-94.584;2022-11-20T05:37:23;5.68;;;2.70;;
62808;SDS011;48848;39.002;-94.584;2022-11-20T05:39:49;6.60;;;3.25;;
62808;SDS011;48848;39.002;-94.584;2022-11-20T05:42:15;6.63;;;3.03;;
62808;SDS011;48848;39.002;-94.584;2022-11-20T05:44:59;6.30;;;2.67;;
62808;SDS011;48848;39.002;-94.584;2022-11-20T05:47:27;7.55;;;3.13;;
62808;SDS011;48848;39.002;-94.584;2022-11-20T05:49:56;6.35;;;2.90;;
62808;SDS011;48848;39.002;-94.584;2022-11-20T05:52:22;6.05;;;2.60;;
62808;SDS011;48848;39.002;-94.584;2022-11-20T05:54:48;6.18;;;3.00;;
62808;SDS011;48848;39.002;-94.584;2022-11-20T05:57:15;8.30;;;2.90;;
62808;SDS011;48848;39.002;-94.584;2022-11-20T05:59:41;8.13;;;2.80;;
62808;SDS011;48848;39.002;-94.584;2022-11-20T06:02:07;4.70;;;2.25;;
62808;SDS011;48848;39.002;-94.584;2022-11-20T06:04:34;11.45;;;2.85;;
62808;SDS011;48848;39.002;-94.584;2022-11-20T06:07:00;6.78;;;2.70;;
62808;SDS011;48848;39.002;-94.584;2022-11-20T06:09:26;4.70;;;2.20;;
62808;SDS011;48848;39.002;-94.584;2022-11-20T06:11:52;9.23;;;2.30;;
62808;SDS011;48848;39.002;-94.584;2022-11-20T06:14:18;4.53;;;2.20;;
62808;SDS011;48848;39.002;-94.584;2022-11-20T06:16:45;4.87;;;2.17;;
62808;SDS011;48848;39.002;-94.584;2022-11-20T06:21:37;5.63;;;2.10;;
62808;SDS011;48848;39.002;-94.584;2022-11-20T06:24:03;6.45;;;2.53;;
62808;SDS011;48848;39.002;-94.584;2022-11-20T06:26:29;5.47;;;2.63;;
62808;SDS011;48848;39.002;-94.584;2022-11-20T06:28:56;4.10;;;1.95;;
62808;SDS011;48848;39.002;-94.584;2022-11-20T06:31:23;4.57;;;2.15;;
62808;SDS011;48848;39.002;-94.584;2022-11-20T06:33:50;5.47;;;2.13;;
62808;SDS011;48848;39.002;-94.584;2022-11-20T06:36:17;4.97;;;1.92;;
62808;SDS011;48848;39.002;-94.584;2022-11-20T06:38:45;4.25;;;2.08;;
62808;SDS011;48848;39.002;-94.584;2022-11-20T06:41:13;5.35;;;2.00;;
62808;SDS011;48848;39.002;-94.584;2022-11-20T06:43:43;6.38;;;2.13;;
62808;SDS011;48848;39.002;-94.584;2022-11-20T06:46:10;5.15;;;2.20;;
62808;SDS011;48848;39.002;-94.584;2022-11-20T06:48:38;5.22;;;2.58;;
62808;SDS011;48848;39.002;-94.584;2022-11-20T06:51:05;5.45;;;2.22;;
62808;SDS011;48848;39.002;-94.584;2022-11-20T06:53:32;4.72;;;2.13;;
62808;SDS011;48848;39.002;-94.584;2022-11-20T06:55:59;5.55;;;2.08;;
62808;SDS011;48848;39.002;-94.584;2022-11-20T06:58:29;3.92;;;2.00;;
62808;SDS011;48848;39.002;-94.584;2022-11-20T07:01:00;4.50;;;2.10;;
62808;SDS011;48848;39.002;-94.584;2022-11-20T07:03:28;4.57;;;2.05;;
62808;SDS011;48848;39.002;-94.584;2022-11-20T07:05:55;4.15;;;2.00;;
62808;SDS011;48848;39.002;-94.584;2022-11-20T07:08:22;4.93;;;2.28;;
62808;SDS011;48848;39.002;-94.584;2022-11-20T07:10:49;6.45;;;2.30;;
62808;SDS011;48848;39.002;-94.584;2022-11-20T07:13:15;4.00;;;1.90;;
62808;SDS011;48848;39.002;-94.584;2022-11-20T07:15:42;3.88;;;2.10;;
62808;SDS011;48848;39.002;-94.584;2022-11-20T07:18:08;2.92;;;1.70;;
62808;SDS011;48848;39.002;-94.584;2022-11-20T07:20:34;4.30;;;2.00;;
62808;SDS011;48848;39.002;-94.584;2022-11-20T07:23:00;4.07;;;1.90;;
62808;SDS011;48848;39.002;-94.584;2022-11-20T07:25:27;3.47;;;1.80;;
62808;SDS011;48848;39.002;-94.584;2022-11-20T07:27:57;4.50;;;2.05;;
62808;SDS011;48848;39.002;-94.584;2022-11-20T07:30:24;4.03;;;1.88;;
62808;SDS011;48848;39.002;-94.584;2022-11-20T07:32:51;3.90;;;1.83;;
62808;SDS011;48848;39.002;-94.584;2022-11-20T07:35:18;4.00;;;1.67;;
62808;SDS011;48848;39.002;-94.584;2022-11-20T07:37:45;4.27;;;1.70;;
62808;SDS011;48848;39.002;-94.584;2022-11-20T07:45:04;4.00;;;1.90;;
62808;SDS011;48848;39.002;-94.584;2022-11-20T09:51:11;3.10;;;1.50;;
62808;SDS011;48848;39.002;-94.584;2022-11-20T09:53:49;3.60;;;1.30;;
62808;SDS011;48848;39.002;-94.584;2022-11-20T09:56:21;2.53;;;1.40;;
62808;SDS011;48848;39.002;-94.584;2022-11-20T09:58:51;2.58;;;1.35;;
62808;SDS011;48848;39.002;-94.584;2022-11-20T10:01:23;2.38;;;1.30;;
62808;SDS011;48848;39.002;-94.584;2022-11-20T10:37:23;4.90;;;1.30;;
62808;SDS011;48848;39.002;-94.584;2022-11-20T10:42:43;2.58;;;1.30;;
62808;SDS011;48848;39.002;-94.584;2022-11-20T10:47:50;2.53;;;1.10;;
62808;SDS011;48848;39.002;-94.584;2022-11-20T10:55:54;2.75;;;1.20;;
62808;SDS011;48848;39.002;-94.584;2022-11-20T11:01:13;2.90;;;1.30;;
62808;SDS011;48848;39.002;-94.584;2022-11-20T11:03:47;2.90;;;1.37;;
62808;SDS011;48848;39.002;-94.584;2022-11-20T11:06:47;2.53;;;1.30;;
62808;SDS011;48848;39.002;-94.584;2022-11-20T11:09:16;2.35;;;1.20;;
62808;SDS011;48848;39.002;-94.584;2022-11-20T11:12:01;2.80;;;1.30;;
62808;SDS011;48848;39.002;-94.584;2022-11-20T11:14:41;2.72;;;1.35;;
62808;SDS011;48848;39.002;-94.584;2022-11-20T11:17:28;2.63;;;1.30;;
62808;SDS011;48848;39.002;-94.584;2022-11-20T11:22:29;3.10;;;1.20;;
62808;SDS011;48848;39.002;-94.584;2022-11-20T11:24:57;3.30;;;1.42;;
62808;SDS011;48848;39.002;-94.584;2022-11-20T11:27:24;2.78;;;1.38;;
62808;SDS011;48848;39.002;-94.584;2022-11-20T11:29:50;2.70;;;1.40;;
62808;SDS011;48848;39.002;-94.584;2022-11-20T11:32:29;2.70;;;1.20;;
62808;SDS011;48848;39.002;-94.584;2022-11-20T11:34:58;2.88;;;1.27;;
62808;SDS011;48848;39.002;-94.584;2022-11-20T11:37:33;2.83;;;1.20;;
62808;SDS011;48848;39.002;-94.584;2022-11-20T11:40:01;3.25;;;1.30;;
62808;SDS011;48848;39.002;-94.584;2022-11-20T11:42:32;4.38;;;1.35;;
62808;SDS011;48848;39.002;-94.584;2022-11-20T11:44:59;2.03;;;1.20;;
62808;SDS011;48848;39.002;-94.584;2022-11-20T11:53:21;2.33;;;1.20;;
62808;SDS011;48848;39.002;-94.584;2022-11-20T12:04:05;1.83;;;1.17;;
62808;SDS011;48848;39.002;-94.584;2022-11-20T12:06:58;2.50;;;1.25;;
62808;SDS011;48848;39.002;-94.584;2022-11-20T12:09:39;2.58;;;1.23;;
62808;SDS011;48848;39.002;-94.584;2022-11-20T12:12:23;3.10;;;1.45;;
62808;SDS011;48848;39.002;-94.584;2022-11-20T12:14:55;2.78;;;1.30;;
62808;SDS011;48848;39.002;-94.584;2022-11-20T12:17:22;3.72;;;1.50;;
62808;SDS011;48848;39.002;-94.584;2022-11-20T12:19:49;3.80;;;1.25;;
62808;SDS011;48848;39.002;-94.584;2022-11-20T12:35:27;3.22;;;1.40;;
62808;SDS011;48848;39.002;-94.584;2022-11-20T12:38:18;5.90;;;1.45;;
62808;SDS011;48848;39.002;-94.584;2022-11-20T12:52:49;4.10;;;1.70;;
62808;SDS011;48848;39.002;-94.584;2022-11-20T12:58:33;3.42;;;1.63;;
62808;SDS011;48848;39.002;-94.584;2022-11-20T13:07:05;3.17;;;1.63;;
62808;SDS011;48848;39.002;-94.584;2022-11-20T13:09:34;3.72;;;1.70;;
62808;SDS011;48848;39.002;-94.584;2022-11-20T13:12:10;6.65;;;1.60;;
62808;SDS011;48848;39.002;-94.584;2022-11-20T13:14:55;3.97;;;1.55;;
62808;SDS011;48848;39.002;-94.584;2022-11-20T13:17:43;3.85;;;1.40;;
62808;SDS011;48848;39.002;-94.584;2022-11-20T13:20:20;3.40;;;1.70;;
62808;SDS011;48848;39.002;-94.584;2022-11-20T13:22:47;4.35;;;1.83;;
62808;SDS011;48848;39.002;-94.584;2022-11-20T13:28:02;3.55;;;1.70;;
62808;SDS011;48848;39.002;-94.584;2022-11-20T15:20:37;3.80;;;1.40;;
62808;SDS011;48848;39.002;-94.584;2022-11-20T15:23:08;10.50;;;1.40;;
62808;SDS011;48848;39.002;-94.584;2022-11-20T15:25:37;7.20;;;1.23;;
62808;SDS011;48848;39.002;-94.584;2022-11-20T15:28:20;9.98;;;1.40;;
62808;SDS011;48848;39.002;-94.584;2022-11-20T15:33:14;3.70;;;1.10;;
62808;SDS011;48848;39.002;-94.584;2022-11-20T15:35:41;7.32;;;1.40;;
62808;SDS011;48848;39.002;-94.584;2022-11-20T15:38:07;15.90;;;1.30;;
62808;SDS011;48848;39.002;-94.584;2022-11-20T15:40:34;18.08;;;1.73;;
62808;SDS011;48848;39.002;-94.584;2022-11-20T15:43:00;7.38;;;1.50;;
62808;SDS011;48848;39.002;-94.584;2022-11-20T15:45:31;3.70;;;1.03;;
62808;SDS011;48848;39.002;-94.584;2022-11-20T15:48:03;3.35;;;1.10;;
62808;SDS011;48848;39.002;-94.584;2022-11-20T15:50:34;2.53;;;1.05;;
62808;SDS011;48848;39.002;-94.584;2022-11-20T15:53:03;17.33;;;1.35;;
62808;SDS011;48848;39.002;-94.584;2022-11-20T15:55:30;4.95;;;1.30;;
62808;SDS011;48848;39.002;-94.584;2022-11-20T15:57:57;6.22;;;1.15;;
62808;SDS011;48848;39.002;-94.584;2022-11-20T16:00:23;7.93;;;1.00;;
62808;SDS011;48848;39.002;-94.584;2022-11-20T16:02:49;4.20;;;1.17;;
62808;SDS011;48848;39.002;-94.584;2022-11-20T16:05:15;5.25;;;1.00;;
62808;SDS011;48848;39.002;-94.584;2022-11-20T16:07:42;4.55;;;1.02;;
62808;SDS011;48848;39.002;-94.584;2022-11-20T16:10:08;2.78;;;1.00;;
62808;SDS011;48848;39.002;-94.584;2022-11-20T16:12:35;2.05;;;1.00;;
62808;SDS011;48848;39.002;-94.584;2022-11-20T16:15:19;2.78;;;1.02;;
62808;SDS011;48848;39.002;-94.584;2022-11-20T16:18:04;5.40;;;1.00;;
62808;SDS011;48848;39.002;-94.584;2022-11-20T16:20:32;4.50;;;1.00;;
62808;SDS011;48848;39.002;-94.584;2022-11-20T16:22:58;4.28;;;0.80;;
62808;SDS011;48848;39.002;-94.584;2022-11-20T16:25:26;4.20;;;1.27;;
62808;SDS011;48848;39.002;-94.584;2022-11-20T16:27:53;13.27;;;1.17;;
62808;SDS011;48848;39.002;-94.584;2022-11-20T16:30:19;20.77;;;1.25;;
62808;SDS011;48848;39.002;-94.584;2022-11-20T16:32:45;4.07;;;0.93;;
62808;SDS011;48848;39.002;-94.584;2022-11-20T16:35:11;3.50;;;1.10;;
62808;SDS011;48848;39.002;-94.584;2022-11-20T16:37:37;4.90;;;0.98;;
62808;SDS011;48848;39.002;-94.584;2022-11-20T16:40:04;4.60;;;1.15;;
62808;SDS011;48848;39.002;-94.584;2022-11-20T16:42:34;10.75;;;0.90;;
62808;SDS011;48848;39.002;-94.584;2022-11-20T16:45:01;4.30;;;1.00;;
62808;SDS011;48848;39.002;-94.584;2022-11-20T16:47:28;4.60;;;1.08;;
62808;SDS011;48848;39.002;-94.584;2022-11-20T16:49:59;8.30;;;1.27;;
62808;SDS011;48848;39.002;-94.584;2022-11-20T16:52:25;4.18;;;1.10;;
62808;SDS011;48848;39.002;-94.584;2022-11-20T16:54:52;3.65;;;1.00;;
62808;SDS011;48848;39.002;-94.584;2022-11-20T16:57:18;6.47;;;0.88;;
62808;SDS011;48848;39.002;-94.584;2022-11-20T16:59:44;3.42;;;1.17;;
62808;SDS011;48848;39.002;-94.584;2022-11-20T17:02:10;2.95;;;0.82;;
62808;SDS011;48848;39.002;-94.584;2022-11-20T17:04:36;1.65;;;0.80;;
62808;SDS011;48848;39.002;-94.584;2022-11-20T17:07:03;8.52;;;1.10;;
62808;SDS011;48848;39.002;-94.584;2022-11-20T17:09:29;1.70;;;0.90;;
62808;SDS011;48848;39.002;-94.584;2022-11-20T17:11:55;3.40;;;1.00;;
62808;SDS011;48848;39.002;-94.584;2022-11-20T17:14:22;2.35;;;0.90;;
62808;SDS011;48848;39.002;-94.584;2022-11-20T17:16:48;3.53;;;0.93;;
62808;SDS011;48848;39.002;-94.584;2022-11-20T17:19:14;2.72;;;0.98;;
62808;SDS011;48848;39.002;-94.584;2022-11-20T17:21:40;2.60;;;1.02;;
62808;SDS011;48848;39.002;-94.584;2022-11-20T17:24:07;7.18;;;1.00;;
62808;SDS011;48848;39.002;-94.584;2022-11-20T17:26:37;3.38;;;0.82;;
62808;SDS011;48848;39.002;-94.584;2022-11-20T17:31:41;2.40;;;0.90;;
62808;SDS011;48848;39.002;-94.584;2022-11-20T17:34:12;3.90;;;1.00;;
62808;SDS011;48848;39.002;-94.584;2022-11-20T17:36:39;2.13;;;0.82;;
62808;SDS011;48848;39.002;-94.584;2022-11-20T17:39:17;1.95;;;0.90;;
62808;SDS011;48848;39.002;-94.584;2022-11-20T17:41:44;2.13;;;0.90;;
62808;SDS011;48848;39.002;-94.584;2022-11-20T17:44:30;2.78;;;1.15;;
62808;SDS011;48848;39.002;-94.584;2022-11-20T17:46:56;3.83;;;1.10;;
62808;SDS011;48848;39.002;-94.584;2022-11-20T17:49:22;3.55;;;0.90;;
62808;SDS011;48848;39.002;-94.584;2022-11-20T17:51:49;1.85;;;0.98;;
62808;SDS011;48848;39.002;-94.584;2022-11-20T17:54:15;2.47;;;1.00;;
62808;SDS011;48848;39.002;-94.584;2022-11-20T17:56:41;2.22;;;1.10;;
62808;SDS011;48848;39.002;-94.584;2022-11-20T17:59:25;2.35;;;1.00;;
62808;SDS011;48848;39.002;-94.584;2022-11-20T18:01:51;2.15;;;1.02;;
62808;SDS011;48848;39.002;-94.584;2022-11-20T18:04:18;4.82;;;1.15;;
62808;SDS011;48848;39.002;-94.584;2022-11-20T18:06:44;9.70;;;1.08;;
62808;SDS011;48848;39.002;-94.584;2022-11-20T18:09:11;9.50;;;1.05;;
62808;SDS011;48848;39.002;-94.584;2022-11-20T18:11:38;3.33;;;1.10;;
62808;SDS011;48848;39.002;-94.584;2022-11-20T18:14:06;5.40;;;1.10;;
62808;SDS011;48848;39.002;-94.584;2022-11-20T18:16:57;6.43;;;1.20;;
62808;SDS011;48848;39.002;-94.584;2022-11-20T18:19:28;7.82;;;1.00;;
62808;SDS011;48848;39.002;-94.584;2022-11-20T18:21:56;1.67;;;0.90;;
62808;SDS011;48848;39.002;-94.584;2022-11-20T18:24:24;2.15;;;1.00;;
62808;SDS011;48848;39.002;-94.584;2022-11-20T18:26:50;1.23;;;0.80;;
62808;SDS011;48848;39.002;-94.584;2022-11-20T18:29:16;3.08;;;1.00;;
62808;SDS011;48848;39.002;-94.584;2022-11-20T18:31:42;1.70;;;0.80;;
62808;SDS011;48848;39.002;-94.584;2022-11-20T18:34:08;1.65;;;0.90;;
62808;SDS011;48848;39.002;-94.584;2022-11-20T18:36:38;2.13;;;0.88;;
62808;SDS011;48848;39.002;-94.584;2022-11-20T18:39:05;1.13;;;0.80;;
62808;SDS011;48848;39.002;-94.584;2022-11-20T18:41:31;2.85;;;0.82;;
62808;SDS011;48848;39.002;-94.584;2022-11-20T18:44:23;0.85;;;0.73;;
62808;SDS011;48848;39.002;-94.584;2022-11-20T18:47:11;1.73;;;0.85;;
62808;SDS011;48848;39.002;-94.584;2022-11-20T18:49:40;2.22;;;0.93;;
62808;SDS011;48848;39.002;-94.584;2022-11-20T18:52:19;1.95;;;0.95;;
62808;SDS011;48848;39.002;-94.584;2022-11-20T18:54:47;1.90;;;0.93;;
62808;SDS011;48848;39.002;-94.584;2022-11-20T18:57:22;2.38;;;1.00;;
62808;SDS011;48848;39.002;-94.584;2022-11-20T18:59:49;1.63;;;0.90;;
62808;SDS011;48848;39.002;-94.584;2022-11-20T19:02:18;2.30;;;0.90;;
62808;SDS011;48848;39.002;-94.584;2022-11-20T19:04:45;1.40;;;0.85;;
62808;SDS011;48848;39.002;-94.584;2022-11-20T19:07:12;1.75;;;0.95;;
62808;SDS011;48848;39.002;-94.584;2022-11-20T19:09:43;4.60;;;1.42;;
62808;SDS011;48848;39.002;-94.584;2022-11-20T19:12:12;3.03;;;1.00;;
62808;SDS011;48848;39.002;-94.584;2022-11-20T19:14:38;1.35;;;0.90;;
62808;SDS011;48848;39.002;-94.584;2022-11-20T19:17:05;2.75;;;1.10;;
62808;SDS011;48848;39.002;-94.584;2022-11-20T19:19:32;2.85;;;1.02;;
62808;SDS011;48848;39.002;-94.584;2022-11-20T19:21:59;1.42;;;0.80;;
62808;SDS011;48848;39.002;-94.584;2022-11-20T19:24:25;4.50;;;0.82;;
62808;SDS011;48848;39.002;-94.584;2022-11-20T19:26:52;4.53;;;0.90;;
62808;SDS011;48848;39.002;-94.584;2022-11-20T19:29:20;5.13;;;0.90;;
62808;SDS011;48848;39.002;-94.584;2022-11-20T19:31:47;2.10;;;0.90;;
62808;SDS011;48848;39.002;-94.584;2022-11-20T19:34:13;7.40;;;1.10;;
62808;SDS011;48848;39.002;-94.584;2022-11-20T19:36:40;2.40;;;0.90;;
62808;SDS011;48848;39.002;-94.584;2022-11-20T19:39:07;3.42;;;0.90;;
62808;SDS011;48848;39.002;-94.584;2022-11-20T19:41:35;6.68;;;1.17;;
62808;SDS011;48848;39.002;-94.584;2022-11-20T19:44:04;4.75;;;0.95;;
62808;SDS011;48848;39.002;-94.584;2022-11-20T19:46:32;3.17;;;0.90;;
62808;SDS011;48848;39.002;-94.584;2022-11-20T19:49:01;7.47;;;1.20;;
62808;SDS011;48848;39.002;-94.584;2022-11-20T19:51:28;6.60;;;1.23;;
62808;SDS011;48848;39.002;-94.584;2022-11-20T19:53:56;4.43;;;1.10;;
62808;SDS011;48848;39.002;-94.584;2022-11-20T19:56:25;7.65;;;1.45;;
62808;SDS011;48848;39.002;-94.584;2022-11-20T19:58:52;8.02;;;1.40;;
62808;SDS011;48848;39.002;-94.584;2022-11-20T20:01:20;4.25;;;1.30;;
62808;SDS011;48848;39.002;-94.584;2022-11-20T20:03:48;13.88;;;1.50;;
62808;SDS011;48848;39.002;-94.584;2022-11-20T20:06:16;7.30;;;1.70;;
62808;SDS011;48848;39.002;-94.584;2022-11-20T20:08:47;9.88;;;1.45;;
62808;SDS011;48848;39.002;-94.584;2022-11-20T20:11:19;12.73;;;1.80;;
62808;SDS011;48848;39.002;-94.584;2022-11-20T20:13:47;6.00;;;1.75;;
62808;SDS011;48848;39.002;-94.584;2022-11-20T20:16:14;11.88;;;2.33;;
62808;SDS011;48848;39.002;-94.584;2022-11-20T20:18:43;13.93;;;2.42;;
62808;SDS011;48848;39.002;-94.584;2022-11-20T20:21:10;13.73;;;2.72;;
62808;SDS011;48848;39.002;-94.584;2022-11-20T20:23:38;13.32;;;1.98;;
62808;SDS011;48848;39.002;-94.584;2022-11-20T20:26:06;15.73;;;2.30;;
62808;SDS011;48848;39.002;-94.584;2022-11-20T20:28:33;18.92;;;2.50;;
62808;SDS011;48848;39.002;-94.584;2022-11-20T20:31:06;18.17;;;2.55;;
62808;SDS011;48848;39.002;-94.584;2022-11-20T20:33:37;13.50;;;2.45;;
62808;SDS011;48848;39.002;-94.584;2022-11-20T20:36:05;12.45;;;2.38;;
62808;SDS011;48848;39.002;-94.584;2022-11-20T20:38:32;16.05;;;2.22;;
62808;SDS011;48848;39.002;-94.584;2022-11-20T20:40:59;26.83;;;2.42;;
62808;SDS011;48848;39.002;-94.584;2022-11-20T20:43:25;17.73;;;2.35;;
62808;SDS011;48848;39.002;-94.584;2022-11-20T20:45:52;32.10;;;3.15;;
62808;SDS011;48848;39.002;-94.584;2022-11-20T20:48:19;13.35;;;2.40;;
62808;SDS011;48848;39.002;-94.584;2022-11-20T20:50:54;17.35;;;1.85;;
62808;SDS011;48848;39.002;-94.584;2022-11-20T20:53:25;11.57;;;2.65;;
62808;SDS011;48848;39.002;-94.584;2022-11-20T20:55:55;13.13;;;2.40;;